3Z9 weather

Haines Seaplane Base
Haines, Alaska, United States

Public forecast

Using degrees Fahrenheit for public forecast. Weather courtesy of forecast.io.

METAR (pilot weather report)

Closest report is Haines Airport, 2.6 nm (4.8 km) WNW. Retrieved 2019/05/22 13:54 UTC (24 minutes ago):

PAHN 221354Z AUTO 11006KT 10SM CLR 11/06 A3016 RMK AO2 SLP214 T01060061 TSNO

TAF (pilot weather forecast)

Closest forecast is Haines Airport, 2.6 nm (4.8 km) WNW. Retrieved 2019/05/22 12:22 UTC (2 hours ago):

TAF PAHN 221120Z 2212/2312 10005KT P6SM SCT080 AMD LTD TO CLD VIS AND WIND